createdAt,value
2022-12-31T00:00:01.544Z,9.98
2022-12-31T00:02:28.477Z,13.50
2022-12-31T00:04:55.487Z,11.80
2022-12-31T00:07:22.293Z,10.75
2022-12-31T00:09:49.020Z,9.13
2022-12-31T00:12:15.803Z,7.75
2022-12-31T00:14:42.560Z,8.85
2022-12-31T00:17:09.475Z,7.45
2022-12-31T00:19:36.459Z,7.97
2022-12-31T00:22:03.297Z,7.75
2022-12-31T00:24:31.219Z,6.65
2022-12-31T00:26:58.055Z,11.25
2022-12-31T00:29:24.951Z,10.25
2022-12-31T00:31:51.729Z,8.43
2022-12-31T00:34:18.543Z,9.63
2022-12-31T00:36:46.243Z,10.15
2022-12-31T00:39:13.243Z,8.23
2022-12-31T00:41:40.263Z,8.93
2022-12-31T00:44:07.193Z,8.52
2022-12-31T00:49:00.586Z,8.77
2022-12-31T00:51:27.913Z,7.13
2022-12-31T00:53:55.955Z,9.73
2022-12-31T00:56:25.862Z,12.68
2022-12-31T00:58:52.756Z,10.20
2022-12-31T01:01:21.758Z,8.13
2022-12-31T01:03:51.207Z,5.95
2022-12-31T01:06:18.942Z,7.40
2022-12-31T01:08:48.290Z,8.13
2022-12-31T01:11:24.053Z,9.15
2022-12-31T01:14:16.867Z,9.45
2022-12-31T01:16:46.845Z,7.57
2022-12-31T01:19:17.205Z,7.95
2022-12-31T01:21:45.304Z,8.27
2022-12-31T01:24:12.806Z,9.77
2022-12-31T01:26:40.048Z,11.50
2022-12-31T01:29:07.528Z,9.43
2022-12-31T01:31:34.949Z,11.57
2022-12-31T01:34:02.177Z,10.68
2022-12-31T01:36:31.217Z,15.85
2022-12-31T01:38:59.286Z,12.65
2022-12-31T01:41:35.416Z,10.45
2022-12-31T01:44:11.279Z,12.68
2022-12-31T01:46:45.057Z,9.02
2022-12-31T01:49:53.670Z,16.10
2022-12-31T01:52:31.346Z,13.55
2022-12-31T01:55:27.879Z,13.82
2022-12-31T01:57:58.248Z,13.38
2022-12-31T02:00:25.309Z,14.90
2022-12-31T02:02:52.715Z,17.92
2022-12-31T02:05:24.812Z,9.82
2022-12-31T02:07:52.300Z,9.52
2022-12-31T02:10:19.193Z,10.80
2022-12-31T02:12:46.657Z,12.45
2022-12-31T02:15:13.536Z,11.43
2022-12-31T02:18:20.907Z,12.40
2022-12-31T02:21:03.829Z,9.95
2022-12-31T02:23:42.159Z,14.02
2022-12-31T02:26:46.729Z,11.30
2022-12-31T02:29:37.773Z,13.13
2022-12-31T02:32:43.083Z,10.20
2022-12-31T02:35:17.425Z,10.73
2022-12-31T02:37:48.491Z,11.82
2022-12-31T02:40:18.373Z,12.85
2022-12-31T02:42:48.694Z,11.27
2022-12-31T02:45:20.945Z,11.05
2022-12-31T02:48:31.344Z,12.48
2022-12-31T02:51:11.006Z,9.98
2022-12-31T02:53:55.476Z,13.35
2022-12-31T02:56:28.293Z,11.23
2022-12-31T02:59:21.226Z,9.65
2022-12-31T03:02:16.930Z,8.93
2022-12-31T03:04:53.496Z,8.60
2022-12-31T03:07:24.713Z,8.52
2022-12-31T03:09:51.630Z,5.13
2022-12-31T03:12:40.412Z,7.88
2022-12-31T03:15:19.963Z,9.82
2022-12-31T03:18:05.526Z,8.80
2022-12-31T03:20:53.495Z,8.77
2022-12-31T03:23:26.212Z,10.43
2022-12-31T03:25:53.537Z,8.57
2022-12-31T03:28:23.201Z,7.93
2022-12-31T03:30:53.711Z,8.63
2022-12-31T03:33:21.349Z,8.02
2022-12-31T03:35:49.014Z,8.10
2022-12-31T03:38:16.732Z,9.55
2022-12-31T03:40:46.694Z,9.10
2022-12-31T03:43:13.921Z,9.32
2022-12-31T03:45:41.010Z,8.93
2022-12-31T03:48:09.435Z,9.13
2022-12-31T03:50:36.609Z,9.20
2022-12-31T03:53:03.514Z,8.82
2022-12-31T03:55:30.307Z,8.45
2022-12-31T03:57:57.124Z,11.80
2022-12-31T04:00:23.894Z,8.15
2022-12-31T04:02:51.001Z,8.85
2022-12-31T04:05:18.496Z,10.70
2022-12-31T04:07:45.282Z,10.13
2022-12-31T04:10:13.795Z,9.45
2022-12-31T04:12:40.861Z,11.48
2022-12-31T04:15:08.862Z,9.80
2022-12-31T04:17:35.799Z,7.07
2022-12-31T04:20:03.482Z,8.00
2022-12-31T04:22:30.353Z,9.13
2022-12-31T04:24:57.353Z,10.30
2022-12-31T04:27:24.121Z,13.48
2022-12-31T04:29:50.967Z,9.57
2022-12-31T04:32:17.797Z,13.65
2022-12-31T04:34:44.649Z,8.93
2022-12-31T04:37:11.512Z,5.05
2022-12-31T04:39:38.366Z,8.82
2022-12-31T04:42:05.235Z,7.20
2022-12-31T04:44:34.954Z,6.97
2022-12-31T04:47:02.135Z,7.85
2022-12-31T04:49:29.031Z,9.32
2022-12-31T04:51:55.818Z,11.23
2022-12-31T04:54:22.730Z,11.82
2022-12-31T04:56:49.500Z,9.82
2022-12-31T04:59:16.254Z,9.77
2022-12-31T05:01:43.139Z,10.65
2022-12-31T05:04:09.966Z,12.23
2022-12-31T05:06:36.847Z,19.20
2022-12-31T05:09:03.836Z,27.13
2022-12-31T05:11:30.620Z,25.65
2022-12-31T05:13:57.460Z,14.75
2022-12-31T05:16:24.384Z,15.60
2022-12-31T05:18:51.179Z,18.92
2022-12-31T05:21:21.294Z,13.57
2022-12-31T05:23:49.091Z,10.43
2022-12-31T05:26:16.141Z,10.98
2022-12-31T05:28:43.017Z,11.32
2022-12-31T05:31:10.539Z,8.70
2022-12-31T05:33:37.424Z,12.50
2022-12-31T05:36:04.544Z,13.80
2022-12-31T05:38:31.341Z,11.32
2022-12-31T05:41:03.053Z,10.23
2022-12-31T05:43:30.195Z,11.77
2022-12-31T05:45:57.094Z,10.13
2022-12-31T05:48:24.036Z,8.93
2022-12-31T05:50:51.133Z,9.52
2022-12-31T05:53:18.021Z,9.57
2022-12-31T05:55:48.459Z,8.23
2022-12-31T06:01:00.334Z,7.47
2022-12-31T06:03:27.155Z,11.68
2022-12-31T06:05:53.989Z,11.65
2022-12-31T06:08:20.756Z,8.88
2022-12-31T06:10:47.617Z,13.07
2022-12-31T06:13:14.406Z,12.82
2022-12-31T06:15:41.259Z,10.13
2022-12-31T06:18:08.212Z,10.55
2022-12-31T06:20:38.665Z,10.77
2022-12-31T06:23:06.134Z,11.15
2022-12-31T06:25:35.187Z,13.70
2022-12-31T06:30:28.669Z,12.48
2022-12-31T06:32:55.909Z,11.13
2022-12-31T06:35:22.843Z,13.52
2022-12-31T06:37:49.882Z,17.10
2022-12-31T06:40:16.739Z,18.27
2022-12-31T06:42:43.607Z,13.40
2022-12-31T06:45:10.905Z,13.98
2022-12-31T06:47:37.839Z,11.35
2022-12-31T06:50:05.096Z,16.70
2022-12-31T06:52:31.907Z,16.63
2022-12-31T06:54:59.190Z,16.58
2022-12-31T06:57:26.378Z,14.63
2022-12-31T06:59:53.619Z,16.02
2022-12-31T07:02:39.520Z,15.23
2022-12-31T07:05:15.486Z,14.35
2022-12-31T07:07:45.347Z,13.85
2022-12-31T07:10:18.559Z,14.57
2022-12-31T07:13:09.087Z,16.88
2022-12-31T07:16:08.211Z,16.98
2022-12-31T07:19:12.549Z,16.90
2022-12-31T07:21:42.271Z,15.82
2022-12-31T07:24:10.607Z,12.30
2022-12-31T07:26:56.376Z,17.60
2022-12-31T07:29:46.878Z,13.75
2022-12-31T07:32:38.231Z,14.25
2022-12-31T07:35:20.070Z,14.50
2022-12-31T07:38:17.519Z,18.40
2022-12-31T07:41:09.329Z,17.30
2022-12-31T07:43:48.887Z,18.77
2022-12-31T07:46:24.801Z,15.35
2022-12-31T07:48:52.039Z,14.55
2022-12-31T07:51:19.066Z,14.55
2022-12-31T07:53:45.956Z,14.63
2022-12-31T07:56:13.322Z,15.00
2022-12-31T07:58:40.015Z,19.88
2022-12-31T08:01:12.740Z,17.67
2022-12-31T08:03:58.420Z,21.15
2022-12-31T08:06:39.250Z,15.88
2022-12-31T08:09:41.632Z,15.30
2022-12-31T08:12:09.070Z,15.68
2022-12-31T08:14:43.766Z,17.30
2022-12-31T08:17:13.467Z,13.70
2022-12-31T08:19:41.318Z,14.05
2022-12-31T08:22:12.931Z,15.43
2022-12-31T08:25:03.529Z,14.52
2022-12-31T08:27:59.835Z,12.52
2022-12-31T08:30:49.534Z,14.70
2022-12-31T08:33:37.399Z,13.43
2022-12-31T08:36:29.414Z,13.75
2022-12-31T08:39:33.840Z,12.98
2022-12-31T08:42:04.285Z,14.25
2022-12-31T08:44:39.910Z,13.77
2022-12-31T08:47:31.899Z,14.45
2022-12-31T08:50:02.839Z,14.15
2022-12-31T08:52:30.328Z,13.20
2022-12-31T08:54:57.425Z,14.63
2022-12-31T08:57:50.653Z,14.75
2022-12-31T09:00:19.513Z,13.45
2022-12-31T09:03:24.611Z,12.38
2022-12-31T09:06:16.052Z,12.00
2022-12-31T09:08:55.013Z,15.00
2022-12-31T09:11:37.192Z,13.60
2022-12-31T09:14:06.818Z,10.93
2022-12-31T09:16:43.425Z,12.00
2022-12-31T09:19:10.576Z,13.82
2022-12-31T09:21:38.306Z,11.02
2022-12-31T09:24:09.334Z,15.52
2022-12-31T09:27:02.761Z,13.18
2022-12-31T09:29:57.633Z,14.38
2022-12-31T09:32:30.910Z,13.70
2022-12-31T09:35:28.179Z,14.23
2022-12-31T09:38:20.627Z,15.57
2022-12-31T09:40:50.066Z,13.85
2022-12-31T09:43:30.573Z,14.93
2022-12-31T09:46:29.772Z,11.45
2022-12-31T09:49:38.815Z,11.23
2022-12-31T09:52:25.880Z,11.80
2022-12-31T09:54:55.538Z,12.48
2022-12-31T09:57:27.333Z,12.68
2022-12-31T10:00:05.716Z,11.85
2022-12-31T10:02:52.884Z,11.73
2022-12-31T10:05:41.151Z,13.73
2022-12-31T10:08:30.234Z,11.13
2022-12-31T10:11:06.595Z,10.25
2022-12-31T10:13:33.392Z,10.38
2022-12-31T10:16:14.341Z,14.27
2022-12-31T10:19:13.340Z,10.75
2022-12-31T10:21:54.947Z,13.07
2022-12-31T10:24:53.837Z,12.88
2022-12-31T10:27:23.655Z,15.93
2022-12-31T10:29:59.062Z,19.38
2022-12-31T10:32:40.522Z,17.02
2022-12-31T10:35:32.431Z,15.52
2022-12-31T10:38:20.322Z,19.25
2022-12-31T10:41:05.626Z,16.85
2022-12-31T10:44:09.737Z,18.23
2022-12-31T10:47:07.197Z,15.45
2022-12-31T10:49:39.900Z,14.32
2022-12-31T10:52:44.113Z,17.85
2022-12-31T10:55:32.903Z,18.50
2022-12-31T10:58:11.820Z,19.38
2022-12-31T11:01:17.730Z,18.30
2022-12-31T11:04:14.944Z,18.40
2022-12-31T11:06:50.621Z,18.17
2022-12-31T11:09:50.095Z,19.50
2022-12-31T11:12:38.165Z,21.15
2022-12-31T11:15:13.932Z,17.85
2022-12-31T11:17:46.931Z,17.88
2022-12-31T11:20:25.872Z,22.17
2022-12-31T11:22:58.556Z,20.00
2022-12-31T11:25:47.767Z,19.52
2022-12-31T11:28:42.601Z,18.35
2022-12-31T11:31:18.987Z,22.05
2022-12-31T11:33:57.740Z,18.00
2022-12-31T11:36:30.226Z,25.02
2022-12-31T11:39:30.802Z,19.27
2022-12-31T11:42:07.919Z,20.95
2022-12-31T11:44:45.376Z,18.02
2022-12-31T11:47:56.514Z,18.08
2022-12-31T11:50:46.848Z,19.30
2022-12-31T11:53:24.053Z,18.40
2022-12-31T11:55:56.918Z,20.45
2022-12-31T11:58:28.722Z,19.35
2022-12-31T12:01:05.977Z,20.05
2022-12-31T12:03:33.201Z,19.30
2022-12-31T12:06:00.047Z,18.80
2022-12-31T12:08:30.937Z,18.75
2022-12-31T12:11:05.557Z,21.80
2022-12-31T12:13:32.862Z,20.92
2022-12-31T12:16:02.129Z,22.02
2022-12-31T12:18:40.979Z,18.85
2022-12-31T12:21:19.209Z,17.83
2022-12-31T12:24:04.449Z,23.27
2022-12-31T12:26:42.337Z,23.20
2022-12-31T12:29:18.396Z,22.08
2022-12-31T12:32:05.002Z,23.17
2022-12-31T12:34:34.314Z,24.20
2022-12-31T12:37:01.287Z,21.63
2022-12-31T12:39:32.314Z,22.33
2022-12-31T12:42:08.605Z,20.48
2022-12-31T12:44:38.491Z,21.88
2022-12-31T12:47:06.941Z,19.85
2022-12-31T12:49:42.168Z,21.63
2022-12-31T12:52:11.946Z,18.05
2022-12-31T12:54:57.210Z,17.63
2022-12-31T12:57:35.094Z,16.20
2022-12-31T13:00:19.301Z,15.57
2022-12-31T13:02:52.362Z,20.25
2022-12-31T13:05:40.488Z,15.38
2022-12-31T13:08:37.153Z,19.20
2022-12-31T13:11:29.512Z,18.58
2022-12-31T13:14:28.293Z,16.00
2022-12-31T13:17:18.764Z,17.67
2022-12-31T13:19:45.537Z,20.85
2022-12-31T13:22:29.877Z,17.38
2022-12-31T13:25:23.853Z,15.65
2022-12-31T13:27:52.743Z,14.00
2022-12-31T13:30:28.719Z,16.63
2022-12-31T13:33:04.048Z,15.75
2022-12-31T13:35:39.652Z,16.75
2022-12-31T13:38:28.579Z,14.55
2022-12-31T13:41:04.370Z,15.25
2022-12-31T13:43:51.149Z,13.90
2022-12-31T13:46:24.093Z,22.08
2022-12-31T13:48:54.813Z,17.38
2022-12-31T13:51:30.081Z,18.98
2022-12-31T13:54:35.575Z,14.02
2022-12-31T13:57:06.113Z,16.27
2022-12-31T13:59:38.585Z,14.25
2022-12-31T14:02:39.378Z,15.48
2022-12-31T14:05:16.271Z,14.48
2022-12-31T14:08:05.002Z,11.60
2022-12-31T14:10:31.712Z,11.55
2022-12-31T14:13:34.301Z,15.05
2022-12-31T14:16:01.616Z,12.18
2022-12-31T14:18:46.236Z,15.60
2022-12-31T14:21:24.446Z,12.43
2022-12-31T14:24:16.185Z,13.23
2022-12-31T14:26:53.170Z,12.52
2022-12-31T14:29:59.840Z,11.63
2022-12-31T14:32:26.580Z,14.15
2022-12-31T14:35:14.899Z,15.95
2022-12-31T14:38:05.916Z,16.65
2022-12-31T14:40:53.275Z,18.20
2022-12-31T14:43:32.160Z,17.15
2022-12-31T14:46:26.675Z,15.55
2022-12-31T14:49:05.478Z,12.30
2022-12-31T14:51:35.234Z,12.23
2022-12-31T14:54:02.226Z,14.52
2022-12-31T14:56:38.080Z,16.08
2022-12-31T14:59:27.819Z,14.25
2022-12-31T15:01:55.364Z,16.70
2022-12-31T15:04:45.631Z,15.05
2022-12-31T15:07:31.558Z,18.05
2022-12-31T15:10:14.986Z,14.90
2022-12-31T15:12:44.993Z,18.98
2022-12-31T15:15:33.632Z,17.27
2022-12-31T15:18:10.442Z,24.10
2022-12-31T15:20:37.170Z,23.02
2022-12-31T15:23:13.703Z,18.40
2022-12-31T15:25:47.224Z,15.48
2022-12-31T15:28:31.070Z,19.65
2022-12-31T15:31:19.899Z,17.77
2022-12-31T15:34:07.485Z,17.25
2022-12-31T15:36:41.504Z,13.57
2022-12-31T15:39:11.268Z,13.73
2022-12-31T15:41:46.104Z,10.75
2022-12-31T15:44:27.553Z,9.07
2022-12-31T15:46:58.291Z,13.85
2022-12-31T15:49:25.764Z,13.18
2022-12-31T15:52:02.493Z,13.52
2022-12-31T15:54:40.575Z,14.93
2022-12-31T15:57:13.869Z,12.00
2022-12-31T15:59:40.918Z,12.25
2022-12-31T16:02:39.294Z,11.85
2022-12-31T16:05:06.553Z,11.70
2022-12-31T16:07:35.298Z,10.20
2022-12-31T16:12:34.450Z,10.48
2022-12-31T16:15:04.989Z,8.75
2022-12-31T16:17:35.855Z,11.25
2022-12-31T16:20:22.676Z,9.13
2022-12-31T16:22:56.307Z,8.48
2022-12-31T16:25:32.289Z,9.10
2022-12-31T16:28:01.757Z,11.30
2022-12-31T16:33:01.202Z,11.52
2022-12-31T16:35:33.144Z,11.63
2022-12-31T16:38:02.160Z,11.38
2022-12-31T16:40:29.181Z,12.82
2022-12-31T16:42:55.936Z,12.38
2022-12-31T16:45:36.840Z,12.95
2022-12-31T16:48:17.207Z,14.75
2022-12-31T16:50:50.088Z,20.50
2022-12-31T16:53:20.034Z,17.88
2022-12-31T16:55:56.266Z,26.40
2022-12-31T16:58:22.930Z,21.02
2022-12-31T17:00:50.662Z,16.50
2022-12-31T17:03:24.402Z,21.92
2022-12-31T17:05:56.269Z,15.20
2022-12-31T17:08:26.134Z,17.45
2022-12-31T17:10:53.226Z,16.90
2022-12-31T17:13:29.819Z,26.50
2022-12-31T17:15:58.099Z,21.73
2022-12-31T17:18:28.390Z,16.80
2022-12-31T17:20:55.463Z,15.95
2022-12-31T17:23:31.420Z,15.50
2022-12-31T17:26:00.929Z,16.58
2022-12-31T17:28:30.533Z,17.55
2022-12-31T17:31:01.962Z,17.83
2022-12-31T17:33:30.556Z,20.67
2022-12-31T17:36:14.450Z,22.15
2022-12-31T17:38:42.078Z,26.92
2022-12-31T17:41:08.767Z,28.83
2022-12-31T17:43:37.071Z,32.70
2022-12-31T17:46:10.423Z,24.52
2022-12-31T17:48:37.567Z,16.90
2022-12-31T17:51:04.696Z,15.73
2022-12-31T17:53:31.488Z,16.30
2022-12-31T17:56:02.390Z,18.52
2022-12-31T17:58:38.377Z,16.70
2022-12-31T18:01:06.611Z,18.13
2022-12-31T18:03:33.469Z,18.20
2022-12-31T18:06:00.281Z,15.98
2022-12-31T18:08:27.118Z,15.93
2022-12-31T18:10:54.262Z,15.57
2022-12-31T18:13:23.828Z,20.90
2022-12-31T18:15:50.689Z,28.92
2022-12-31T18:18:25.234Z,26.98
2022-12-31T18:21:04.533Z,24.60
2022-12-31T18:23:48.413Z,22.40
2022-12-31T18:26:23.865Z,22.15
2022-12-31T18:28:50.930Z,20.20
2022-12-31T18:31:29.248Z,17.85
2022-12-31T18:33:57.620Z,18.40
2022-12-31T18:36:25.410Z,18.42
2022-12-31T18:38:52.960Z,20.30
2022-12-31T18:41:26.928Z,16.23
2022-12-31T18:43:54.829Z,15.80
2022-12-31T18:46:23.787Z,17.50
2022-12-31T18:48:50.754Z,15.80
2022-12-31T18:51:31.059Z,13.02
2022-12-31T18:54:14.697Z,15.20
2022-12-31T18:56:47.624Z,14.02
2022-12-31T18:59:17.227Z,18.75
2022-12-31T19:01:44.324Z,13.82
2022-12-31T19:04:27.574Z,12.98
2022-12-31T19:06:56.109Z,9.25
2022-12-31T19:09:44.679Z,10.95
2022-12-31T19:12:13.693Z,12.50
2022-12-31T19:14:40.642Z,15.27
2022-12-31T19:19:34.829Z,14.82
2022-12-31T19:22:02.751Z,12.52
2022-12-31T19:24:29.780Z,12.80
2022-12-31T19:26:56.567Z,12.98
2022-12-31T19:29:25.291Z,12.60
2022-12-31T19:31:52.433Z,11.18
2022-12-31T19:34:19.224Z,15.27
2022-12-31T19:36:46.038Z,12.23
2022-12-31T19:39:18.582Z,14.88
2022-12-31T19:41:45.682Z,16.35
2022-12-31T19:44:21.586Z,12.95
2022-12-31T19:46:49.431Z,14.82
2022-12-31T19:49:16.568Z,12.38
2022-12-31T19:51:43.461Z,15.63
2022-12-31T19:54:12.968Z,12.18
2022-12-31T19:56:39.779Z,11.80
2022-12-31T19:59:08.803Z,10.40
2022-12-31T20:01:35.944Z,14.65
2022-12-31T20:04:04.658Z,11.95
2022-12-31T20:06:31.469Z,10.88
2022-12-31T20:08:58.374Z,12.50
2022-12-31T20:11:25.300Z,14.52
2022-12-31T20:13:53.663Z,11.75
2022-12-31T20:16:22.610Z,14.95
2022-12-31T20:21:23.416Z,10.95
2022-12-31T20:23:51.189Z,15.10
2022-12-31T20:26:19.044Z,10.35
2022-12-31T20:28:46.066Z,11.60
2022-12-31T20:31:15.330Z,10.48
2022-12-31T20:33:42.160Z,12.75
2022-12-31T20:36:10.973Z,12.10
2022-12-31T20:41:09.250Z,17.17
2022-12-31T20:43:36.518Z,11.15
2022-12-31T20:46:16.302Z,10.70
2022-12-31T20:48:44.358Z,10.68
2022-12-31T20:51:12.208Z,16.15
2022-12-31T20:53:39.129Z,9.38
2022-12-31T20:56:07.046Z,13.60
2022-12-31T20:58:34.531Z,20.35
2022-12-31T21:01:01.572Z,19.35
2022-12-31T21:04:03.804Z,17.67
2022-12-31T21:06:15.855Z,33.00
2022-12-31T21:08:43.172Z,30.83
2022-12-31T21:11:29.044Z,27.45
2022-12-31T21:13:58.697Z,50.28
2022-12-31T21:16:26.560Z,38.63
2022-12-31T21:18:54.281Z,27.65
2022-12-31T21:21:21.625Z,13.23
2022-12-31T21:23:48.431Z,20.40
2022-12-31T21:26:15.540Z,17.42
2022-12-31T21:28:42.529Z,17.58
2022-12-31T21:31:12.032Z,19.90
2022-12-31T21:33:39.066Z,11.93
2022-12-31T21:36:06.056Z,14.07
2022-12-31T21:38:36.208Z,11.40
2022-12-31T21:41:04.230Z,13.10
2022-12-31T21:43:31.074Z,11.30
2022-12-31T21:46:05.152Z,10.20
2022-12-31T21:48:32.296Z,10.57
2022-12-31T21:51:08.037Z,11.43
2022-12-31T21:53:37.247Z,15.30
2022-12-31T21:56:16.118Z,13.18
2022-12-31T21:59:08.051Z,15.38
2022-12-31T22:01:53.724Z,13.98
2022-12-31T22:04:51.626Z,14.20
2022-12-31T22:07:07.599Z,17.48
2022-12-31T22:09:34.511Z,15.10
2022-12-31T22:12:01.324Z,21.40
2022-12-31T22:14:28.076Z,31.17
2022-12-31T22:16:54.931Z,66.43
2022-12-31T22:19:21.682Z,40.50
2022-12-31T22:21:48.537Z,34.33
2022-12-31T22:24:15.219Z,35.85
2022-12-31T22:26:46.513Z,35.42
2022-12-31T22:29:13.765Z,48.92
2022-12-31T22:31:40.673Z,99.25
2022-12-31T22:34:07.591Z,133.00
2022-12-31T22:36:35.022Z,145.77
2022-12-31T22:39:01.727Z,179.32
2022-12-31T22:41:29.078Z,185.68
2022-12-31T22:44:03.541Z,158.13
2022-12-31T22:46:31.934Z,146.45
2022-12-31T22:48:59.890Z,94.50
2022-12-31T22:51:54.947Z,83.68
2022-12-31T22:54:14.581Z,65.85
2022-12-31T22:56:41.615Z,48.13
2022-12-31T22:59:09.328Z,51.00
2022-12-31T23:01:36.498Z,37.92
2022-12-31T23:04:03.876Z,36.25
2022-12-31T23:06:30.955Z,47.47
2022-12-31T23:09:16.198Z,46.85
2022-12-31T23:11:43.630Z,41.05
2022-12-31T23:14:34.404Z,44.13
2022-12-31T23:17:30.253Z,48.40
2022-12-31T23:20:18.196Z,22.65
2022-12-31T23:23:04.060Z,18.73
2022-12-31T23:25:41.873Z,23.95
2022-12-31T23:28:11.391Z,22.73
2022-12-31T23:30:39.539Z,29.38
2022-12-31T23:33:07.415Z,22.98
2022-12-31T23:35:34.475Z,25.10
2022-12-31T23:38:01.305Z,30.65
2022-12-31T23:40:34.398Z,28.25
2022-12-31T23:43:05.590Z,29.77
2022-12-31T23:45:33.678Z,25.05
2022-12-31T23:48:00.725Z,29.38
2022-12-31T23:50:27.587Z,30.35
2022-12-31T23:52:54.472Z,26.27
2022-12-31T23:55:21.519Z,23.75
2022-12-31T23:57:48.274Z,13.88
